GB-0581 weather

Winkwood Farm Airstrip
England, United Kingdom

Public forecast

Using degrees Celsius for public forecast. Weather courtesy of forecast.io.

Closest aviation weather report (METAR) to Winkwood Farm Airstrip

Closest report is Farnborough Airport, 8.9 nm (16.5 km) NNW. Retrieved 2019/12/15 23:20 UTC (0 seconds ago):

EGLF 152320Z AUTO 23011KT 200V260 9999 SCT018/// 05/04 Q0999 RERA

Closest aviation forecast (TAF) to Winkwood Farm Airstrip

Forecast is more than 12 hours old.

Closest forecast is Farnborough Airport, 8.9 nm (16.5 km) NNW. Retrieved 2016/04/18 18:00 UTC (4 years ago):

TAF EGLF 181658Z 1818/1821 26008KT 9999 BKN040